createdAt,value
2018-11-12T00:00:23.105Z,8.73
2018-11-12T00:01:23.008Z,8.75
2018-11-12T00:02:22.911Z,8.75
2018-11-12T00:03:22.826Z,8.78
2018-11-12T00:04:22.711Z,8.75
2018-11-12T00:05:22.614Z,8.78
2018-11-12T00:06:22.518Z,8.78
2018-11-12T00:07:22.422Z,8.83
2018-11-12T00:08:22.337Z,8.86
2018-11-12T00:09:22.234Z,8.97
2018-11-12T00:24:04.668Z,8.91
2018-11-12T00:25:04.878Z,8.97
2018-11-12T00:26:04.457Z,8.93
2018-11-12T00:27:04.359Z,8.96
2018-11-12T00:28:04.278Z,8.86
2018-11-12T00:29:04.162Z,8.94
2018-11-12T00:30:04.064Z,8.83
2018-11-12T00:31:03.966Z,8.79
2018-11-12T00:32:03.976Z,8.85
2018-11-12T00:33:03.786Z,8.85
2018-11-12T00:34:03.672Z,8.82
2018-11-12T00:35:03.576Z,8.82
2018-11-12T00:36:03.476Z,8.79
2018-11-12T00:37:03.376Z,8.64
2018-11-12T00:38:03.298Z,8.80
2018-11-12T00:39:03.182Z,8.76
2018-11-12T00:40:03.087Z,8.79
2018-11-12T00:41:02.987Z,8.86
2018-11-12T00:42:02.890Z,8.83
2018-11-12T00:43:02.807Z,8.91
2018-11-12T00:44:02.691Z,8.89
2018-11-12T00:45:02.592Z,8.80
2018-11-12T00:46:02.494Z,8.91
2018-11-12T00:47:02.396Z,8.83
2018-11-12T00:48:02.301Z,8.88
2018-11-12T00:49:02.216Z,8.80
2018-11-12T00:50:02.121Z,8.97
2018-11-12T00:51:02.002Z,8.91
2018-11-12T00:52:01.906Z,8.93
2018-11-12T00:53:01.925Z,8.94
2018-11-12T00:54:01.727Z,8.94
2018-11-12T00:55:01.617Z,8.91
2018-11-12T00:56:01.517Z,8.98
2018-11-12T00:57:01.417Z,8.91
2018-11-12T00:58:01.319Z,8.91
2018-11-12T00:59:01.353Z,9.01
2018-11-12T01:00:01.120Z,8.93
2018-11-12T01:01:01.025Z,8.96
2018-11-12T01:02:00.926Z,8.86
2018-11-12T01:03:00.832Z,8.83
2018-11-12T01:04:00.749Z,8.83
2018-11-12T01:05:00.632Z,8.88
2018-11-12T01:06:00.532Z,8.80
2018-11-12T01:07:00.436Z,8.94
2018-11-12T01:08:00.337Z,8.96
2018-11-12T01:09:00.254Z,8.98
2018-11-12T01:10:00.142Z,8.88
2018-11-12T01:11:00.085Z,8.93
2018-11-12T01:11:59.943Z,8.94
2018-11-12T01:12:59.846Z,8.96
2018-11-12T01:13:59.766Z,8.94
2018-11-12T01:14:59.651Z,8.86
2018-11-12T01:15:59.572Z,8.86
2018-11-12T01:16:59.454Z,8.97
2018-11-12T01:17:59.358Z,8.89
2018-11-12T01:18:59.275Z,8.80
2018-11-12T01:19:59.159Z,8.68
2018-11-12T01:20:59.061Z,8.76
2018-11-12T01:21:58.965Z,8.82
2018-11-12T01:22:58.868Z,8.88
2018-11-12T01:23:58.785Z,8.88
2018-11-12T01:24:58.669Z,8.93
2018-11-12T01:25:58.576Z,9.00
2018-11-12T01:26:58.473Z,9.01
2018-11-12T01:27:58.380Z,9.15
2018-11-12T01:28:58.293Z,9.12
2018-11-12T01:29:58.183Z,9.16
2018-11-12T01:30:58.081Z,9.16
2018-11-12T01:31:57.985Z,9.10
2018-11-12T01:32:57.886Z,9.17
2018-11-12T01:33:57.804Z,9.24
2018-11-12T01:34:57.694Z,9.16
2018-11-12T01:35:57.591Z,9.08
2018-11-12T01:36:57.493Z,9.08
2018-11-12T01:37:57.395Z,9.15
2018-11-12T01:38:57.316Z,9.15
2018-11-12T01:39:57.199Z,9.13
2018-11-12T01:40:57.102Z,9.13
2018-11-12T01:41:57.021Z,9.16
2018-11-12T01:42:56.909Z,9.17
2018-11-12T01:43:56.826Z,9.16
2018-11-12T01:44:56.711Z,9.08
2018-11-12T01:45:56.617Z,9.01
2018-11-12T01:46:56.514Z,9.00
2018-11-12T01:47:56.416Z,9.13
2018-11-12T01:48:56.335Z,9.12
2018-11-12T01:49:56.219Z,9.13
2018-11-12T01:50:56.130Z,9.00
2018-11-12T01:51:56.033Z,9.16
2018-11-12T01:52:55.926Z,9.20
2018-11-12T01:53:55.844Z,9.22
2018-11-12T01:54:55.730Z,9.24
2018-11-12T01:55:55.631Z,9.34
2018-11-12T01:56:55.538Z,9.26
2018-11-12T01:57:55.438Z,9.22
2018-11-12T01:58:55.356Z,9.22
2018-11-12T01:59:55.243Z,9.16
2018-11-12T02:00:55.141Z,9.27
2018-11-12T02:01:55.049Z,9.22
2018-11-12T02:02:54.948Z,9.12
2018-11-12T02:03:54.865Z,9.20
2018-11-12T02:04:54.839Z,9.26
2018-11-12T02:05:54.660Z,9.24
2018-11-12T02:06:54.556Z,9.27
2018-11-12T02:07:54.456Z,9.32
2018-11-12T02:08:54.470Z,9.35
2018-11-12T02:09:54.262Z,9.42
2018-11-12T02:10:54.169Z,9.35
2018-11-12T02:11:54.069Z,9.34
2018-11-12T02:12:53.968Z,9.45
2018-11-12T02:13:53.885Z,9.45
2018-11-12T02:14:53.771Z,9.34
2018-11-12T02:15:53.797Z,9.45
2018-11-12T02:16:53.578Z,9.41
2018-11-12T02:17:53.478Z,9.60
2018-11-12T02:18:53.397Z,9.44
2018-11-12T02:19:53.283Z,9.41
2018-11-12T02:20:53.183Z,9.38
2018-11-12T02:21:53.087Z,9.45
2018-11-12T02:22:53.138Z,9.48
2018-11-12T02:23:52.908Z,9.49
2018-11-12T02:24:52.793Z,9.48
2018-11-12T02:25:52.695Z,9.48
2018-11-12T02:26:52.600Z,9.62
2018-11-12T02:27:52.498Z,9.67
2018-11-12T02:28:52.404Z,9.59
2018-11-12T02:29:52.430Z,9.70
2018-11-12T02:30:52.206Z,9.74
2018-11-12T02:31:52.110Z,9.81
2018-11-12T02:32:52.012Z,9.75
2018-11-12T02:33:51.933Z,9.83
2018-11-12T02:34:51.817Z,9.93
2018-11-12T02:35:51.718Z,9.93
2018-11-12T02:36:51.621Z,9.99
2018-11-12T02:37:51.525Z,10.06
2018-11-12T02:38:51.428Z,10.06
2018-11-12T02:39:51.345Z,10.07
2018-11-12T02:40:51.229Z,9.99
2018-11-12T02:41:51.134Z,10.07
2018-11-12T02:42:51.052Z,10.04
2018-11-12T02:43:50.943Z,9.96
2018-11-12T02:44:50.858Z,9.99
2018-11-12T02:45:50.744Z,10.04
2018-11-12T02:46:50.649Z,10.04
2018-11-12T02:47:50.549Z,10.10
2018-11-12T02:48:50.453Z,10.07
2018-11-12T02:49:50.370Z,10.11
2018-11-12T02:50:50.255Z,10.09
2018-11-12T02:51:50.159Z,10.14
2018-11-12T02:52:50.062Z,10.16
2018-11-12T02:53:49.968Z,10.16
2018-11-12T02:54:49.883Z,10.20
2018-11-12T02:55:49.768Z,10.18
2018-11-12T02:56:49.676Z,10.16
2018-11-12T02:57:49.580Z,10.04
2018-11-12T02:58:49.478Z,10.01
2018-11-12T02:59:49.415Z,9.98
2018-11-12T03:00:49.282Z,9.73
2018-11-12T03:01:49.185Z,9.65
2018-11-12T03:02:49.095Z,9.65
2018-11-12T03:03:48.991Z,9.67
2018-11-12T03:04:48.913Z,9.70
2018-11-12T03:05:48.796Z,9.60
2018-11-12T03:06:48.701Z,9.60
2018-11-12T03:07:48.600Z,9.42
2018-11-12T03:08:48.509Z,9.38
2018-11-12T03:09:48.440Z,9.26
2018-11-12T03:10:48.311Z,9.13
2018-11-12T03:11:48.213Z,8.98
2018-11-12T03:12:48.418Z,8.83
2018-11-12T03:13:48.018Z,8.79
2018-11-12T03:14:47.936Z,8.80
2018-11-12T03:15:47.823Z,8.88
2018-11-12T03:16:47.727Z,8.97
2018-11-12T03:17:47.626Z,9.01
2018-11-12T03:18:47.529Z,8.96
2018-11-12T03:19:47.558Z,8.76
2018-11-12T03:20:47.335Z,8.65
2018-11-12T03:21:47.236Z,8.61
2018-11-12T03:22:47.139Z,8.54
2018-11-12T03:23:47.040Z,8.65
2018-11-12T03:24:46.959Z,8.78
2018-11-12T03:25:46.849Z,8.89
2018-11-12T03:26:46.953Z,8.91
2018-11-12T03:27:46.727Z,8.89
2018-11-12T03:28:46.555Z,8.83
2018-11-12T03:29:46.470Z,8.86
2018-11-12T03:30:46.359Z,8.80
2018-11-12T03:31:46.261Z,8.86
2018-11-12T03:32:46.171Z,8.88
2018-11-12T03:33:46.173Z,8.96
2018-11-12T03:34:45.983Z,8.93
2018-11-12T03:35:45.869Z,8.96
2018-11-12T03:36:45.769Z,9.08
2018-11-12T03:37:45.671Z,9.19
2018-11-12T03:38:45.573Z,9.32
2018-11-12T03:39:45.579Z,9.34
2018-11-12T03:40:45.379Z,9.37
2018-11-12T03:41:45.289Z,9.49
2018-11-12T03:42:45.186Z,9.58
2018-11-12T03:43:45.089Z,9.65
2018-11-12T03:44:45.005Z,9.70
2018-11-12T03:45:44.890Z,9.71
2018-11-12T03:46:44.791Z,9.81
2018-11-12T03:47:44.699Z,9.93
2018-11-12T03:48:44.596Z,9.96
2018-11-12T03:49:44.516Z,9.96
2018-11-12T03:50:44.401Z,9.85
2018-11-12T03:51:44.302Z,9.92
2018-11-12T03:52:44.208Z,10.01
2018-11-12T03:53:44.114Z,9.81
2018-11-12T03:54:44.028Z,9.78
2018-11-12T03:55:43.910Z,9.88
2018-11-12T03:56:43.817Z,9.85
2018-11-12T03:57:43.717Z,9.88
2018-11-12T03:58:43.621Z,9.86
2018-11-12T03:59:43.538Z,9.73
2018-11-12T04:00:43.425Z,9.80
2018-11-12T04:01:43.328Z,9.80
2018-11-12T04:02:43.230Z,9.78
2018-11-12T04:03:43.133Z,9.80
2018-11-12T04:04:43.053Z,9.77
2018-11-12T04:05:42.941Z,9.83
2018-11-12T04:06:42.839Z,9.80
2018-11-12T04:07:42.752Z,9.75
2018-11-12T04:08:42.643Z,9.86
2018-11-12T04:09:42.563Z,9.83
2018-11-12T04:10:42.454Z,9.81
2018-11-12T04:11:42.354Z,9.91
2018-11-12T04:12:42.255Z,9.91
2018-11-12T04:13:42.159Z,9.83
2018-11-12T04:14:42.078Z,9.85
2018-11-12T04:15:41.964Z,9.85
2018-11-12T04:16:41.867Z,9.75
2018-11-12T04:17:41.767Z,9.78
2018-11-12T04:18:41.675Z,9.71
2018-11-12T04:19:41.577Z,9.73
2018-11-12T04:20:41.492Z,9.78
2018-11-12T04:21:41.378Z,9.81
2018-11-12T04:22:41.281Z,9.75
2018-11-12T04:23:41.182Z,9.75
2018-11-12T04:24:41.086Z,9.70
2018-11-12T04:25:41.006Z,9.73
2018-11-12T04:26:40.900Z,9.75
2018-11-12T04:27:40.793Z,9.62
2018-11-12T04:28:40.697Z,9.74
2018-11-12T04:29:40.599Z,9.67
2018-11-12T04:30:40.519Z,9.75
2018-11-12T04:31:40.403Z,9.80
2018-11-12T04:32:40.305Z,9.83
2018-11-12T04:33:40.209Z,9.80
2018-11-12T04:34:40.113Z,9.74
2018-11-12T04:35:40.031Z,9.71
2018-11-12T04:36:39.915Z,9.88
2018-11-12T04:37:39.819Z,9.86
2018-11-12T04:38:39.723Z,9.86
2018-11-12T04:39:39.627Z,9.75
2018-11-12T04:40:39.542Z,9.78
2018-11-12T04:41:39.430Z,9.73
2018-11-12T04:42:39.331Z,9.73
2018-11-12T04:43:39.233Z,9.67
2018-11-12T04:44:39.137Z,9.74
2018-11-12T04:45:39.097Z,9.65
2018-11-12T04:46:38.942Z,9.60
2018-11-12T04:47:38.844Z,9.63
2018-11-12T04:48:38.747Z,9.62
2018-11-12T04:49:38.648Z,9.63
2018-11-12T04:50:38.567Z,9.45
2018-11-12T04:51:38.453Z,9.44
2018-11-12T04:52:38.356Z,9.49
2018-11-12T04:53:38.298Z,9.50
2018-11-12T04:54:38.161Z,9.48
2018-11-12T04:55:38.081Z,9.45
2018-11-12T04:56:37.971Z,9.32
2018-11-12T04:57:37.868Z,9.42
2018-11-12T04:58:37.775Z,9.37
2018-11-12T04:59:37.673Z,9.34
2018-11-12T05:00:37.591Z,9.35
2018-11-12T05:01:37.479Z,9.40
2018-11-12T05:02:37.380Z,9.35
2018-11-12T05:03:37.285Z,9.23
2018-11-12T05:04:37.186Z,9.31
2018-11-12T05:05:37.106Z,9.34
2018-11-12T05:06:36.990Z,9.30
2018-11-12T05:07:36.946Z,9.40
2018-11-12T05:08:36.793Z,9.31
2018-11-12T05:09:36.696Z,9.23
2018-11-12T05:10:36.616Z,9.24
2018-11-12T05:11:36.544Z,9.31
2018-11-12T05:12:36.406Z,9.26
2018-11-12T05:13:36.304Z,9.22
2018-11-12T05:14:36.207Z,9.23
2018-11-12T05:15:36.129Z,9.23
2018-11-12T05:16:36.017Z,9.24
2018-11-12T05:17:36.027Z,9.15
2018-11-12T05:18:35.819Z,9.19
2018-11-12T05:19:35.721Z,9.22
2018-11-12T05:20:35.637Z,9.17
2018-11-12T05:21:35.525Z,9.23
2018-11-12T05:22:35.425Z,9.23
2018-11-12T05:23:35.328Z,9.22
2018-11-12T05:24:35.336Z,9.19
2018-11-12T05:25:35.150Z,9.20
2018-11-12T05:26:35.036Z,9.19
2018-11-12T05:27:34.937Z,9.24
2018-11-12T05:28:34.840Z,9.23
2018-11-12T05:29:34.743Z,9.20
2018-11-12T05:30:34.667Z,9.22
2018-11-12T05:31:34.647Z,9.17
2018-11-12T05:32:34.451Z,9.23
2018-11-12T05:33:34.350Z,9.24
2018-11-12T05:34:34.254Z,9.23
2018-11-12T05:35:34.174Z,9.20
2018-11-12T05:36:34.056Z,9.13
2018-11-12T05:37:33.965Z,9.08
2018-11-12T05:38:33.972Z,9.03
2018-11-12T05:39:33.767Z,9.04
2018-11-12T05:40:33.683Z,9.10
2018-11-12T05:41:33.569Z,9.01
2018-11-12T05:42:33.473Z,8.97
2018-11-12T05:43:33.375Z,9.01
2018-11-12T05:44:33.277Z,9.04
2018-11-12T05:45:33.304Z,9.04
2018-11-12T05:46:33.083Z,9.08
2018-11-12T05:47:32.983Z,8.94
2018-11-12T05:48:32.888Z,8.88
2018-11-12T05:49:32.788Z,8.93
2018-11-12T05:50:32.712Z,8.88
2018-11-12T05:51:32.654Z,8.88
2018-11-12T05:52:32.603Z,8.83
2018-11-12T05:53:32.397Z,8.80
2018-11-12T05:54:32.300Z,8.85
2018-11-12T05:55:32.220Z,8.79
2018-11-12T05:56:32.105Z,8.88
2018-11-12T05:57:32.010Z,8.76
2018-11-12T05:58:31.910Z,8.80
2018-11-12T05:59:31.922Z,8.68
2018-11-12T06:00:31.733Z,8.73
2018-11-12T06:01:31.615Z,8.61
2018-11-12T06:02:31.519Z,8.65
2018-11-12T06:03:31.421Z,8.64
2018-11-12T06:04:31.333Z,8.63
2018-11-12T06:05:31.226Z,8.63
2018-11-12T06:06:31.255Z,8.67
2018-11-12T06:07:31.030Z,8.70
2018-11-12T06:08:30.935Z,8.67
2018-11-12T06:09:30.835Z,8.61
2018-11-12T06:10:30.738Z,8.65
2018-11-12T06:11:30.659Z,8.68
2018-11-12T06:12:30.540Z,8.64
2018-11-12T06:13:30.553Z,8.67
2018-11-12T06:14:30.345Z,8.68
2018-11-12T06:15:30.250Z,8.67
2018-11-12T06:16:30.166Z,8.61
2018-11-12T06:17:30.052Z,8.63
2018-11-12T06:18:29.954Z,8.65
2018-11-12T06:19:29.854Z,8.67
2018-11-12T06:20:29.872Z,8.71
2018-11-12T06:21:29.678Z,8.68
2018-11-12T06:22:29.608Z,8.67
2018-11-12T06:23:29.465Z,8.76
2018-11-12T06:24:29.365Z,8.73
2018-11-12T06:25:29.271Z,8.76
2018-11-12T06:26:29.301Z,8.65
2018-11-12T06:27:29.073Z,8.70
2018-11-12T06:28:28.975Z,8.52
2018-11-12T06:29:28.878Z,8.58
2018-11-12T06:30:28.781Z,8.73
2018-11-12T06:31:28.699Z,8.64
2018-11-12T06:32:28.582Z,8.61
2018-11-12T06:33:28.485Z,8.61
2018-11-12T06:34:28.389Z,8.60
2018-11-12T06:35:28.291Z,8.60
2018-11-12T06:36:28.211Z,8.70
2018-11-12T06:37:28.094Z,8.58
2018-11-12T06:38:27.997Z,8.50
2018-11-12T06:39:27.897Z,8.52
2018-11-12T06:40:27.801Z,8.46
2018-11-12T06:41:27.718Z,8.42
2018-11-12T06:42:27.623Z,8.43
2018-11-12T06:43:27.504Z,8.46
2018-11-12T06:44:27.406Z,8.42
2018-11-12T06:45:27.312Z,8.37
2018-11-12T06:46:27.228Z,8.28
2018-11-12T06:47:27.113Z,8.31
2018-11-12T06:48:27.018Z,8.34
2018-11-12T06:49:26.919Z,8.18
2018-11-12T06:50:26.821Z,8.20
2018-11-12T06:51:26.738Z,8.10
2018-11-12T06:52:26.628Z,8.02
2018-11-12T06:53:26.563Z,7.99
2018-11-12T06:54:26.451Z,8.09
2018-11-12T06:55:26.328Z,7.88
2018-11-12T06:56:26.248Z,7.89
2018-11-12T06:57:26.133Z,7.99
2018-11-12T06:58:26.038Z,8.10
2018-11-12T06:59:25.940Z,8.22
2018-11-12T07:00:25.841Z,8.29
2018-11-12T07:01:25.757Z,8.43
2018-11-12T07:02:25.644Z,8.55
2018-11-12T07:03:25.544Z,8.63
2018-11-12T07:04:25.447Z,8.58
2018-11-12T07:05:25.349Z,8.63
2018-11-12T07:06:25.287Z,8.65
2018-11-12T07:07:25.155Z,8.83
2018-11-12T07:08:25.062Z,8.93
2018-11-12T07:09:24.959Z,8.96
2018-11-12T07:10:24.860Z,8.94
2018-11-12T07:11:24.780Z,8.98
2018-11-12T07:12:24.664Z,9.04
2018-11-12T07:13:24.662Z,9.08
2018-11-12T07:14:24.469Z,9.13
2018-11-12T07:15:24.371Z,9.22
2018-11-12T07:16:24.292Z,9.24
2018-11-12T07:17:24.177Z,9.37
2018-11-12T07:18:24.079Z,9.45
2018-11-12T07:19:23.980Z,9.75
2018-11-12T07:20:23.884Z,10.01
2018-11-12T07:21:23.804Z,10.29
2018-11-12T07:22:23.688Z,10.62
2018-11-12T07:23:23.591Z,10.99
2018-11-12T07:24:23.492Z,11.26
2018-11-12T07:25:23.490Z,11.36
2018-11-12T07:26:23.318Z,11.59
2018-11-12T07:27:23.204Z,11.66
2018-11-12T07:28:23.106Z,11.62
2018-11-12T07:29:23.010Z,11.30
2018-11-12T07:30:22.916Z,11.20
2018-11-12T07:31:22.920Z,11.08
2018-11-12T07:32:22.726Z,11.05
2018-11-12T07:33:22.628Z,11.08
2018-11-12T07:34:22.533Z,11.26
2018-11-12T07:35:22.437Z,11.51
2018-11-12T07:36:22.357Z,11.69
2018-11-12T07:37:22.245Z,11.98
2018-11-12T07:38:22.149Z,11.66
2018-11-12T07:39:22.053Z,11.36
2018-11-12T07:40:21.959Z,11.12
2018-11-12T07:41:21.880Z,11.01
2018-11-12T07:42:21.770Z,10.91
2018-11-12T07:43:21.783Z,10.86
2018-11-12T07:44:21.583Z,10.78
2018-11-12T07:45:21.484Z,10.63
2018-11-12T07:46:21.414Z,10.69
2018-11-12T07:47:21.293Z,10.69
2018-11-12T07:48:21.197Z,10.58
2018-11-12T07:49:21.105Z,10.63
2018-11-12T07:50:21.109Z,10.57
2018-11-12T07:51:21.009Z,10.81
2018-11-12T07:52:20.819Z,10.87
2018-11-12T07:53:20.723Z,11.39
2018-11-12T07:54:20.647Z,11.23
2018-11-12T07:55:20.535Z,10.98
2018-11-12T07:56:20.491Z,10.84
2018-11-12T07:57:20.465Z,10.68
2018-11-12T07:58:20.246Z,10.63
2018-11-12T07:59:20.150Z,10.58
2018-11-12T08:00:20.062Z,10.84
2018-11-12T08:01:19.977Z,11.44
2018-11-12T08:02:19.883Z,11.46
2018-11-12T08:03:19.789Z,11.06
2018-11-12T08:04:19.783Z,10.86
2018-11-12T08:05:19.581Z,10.80
2018-11-12T08:06:19.491Z,10.87
2018-11-12T08:07:19.405Z,11.66
2018-11-12T08:08:19.294Z,11.97
2018-11-12T08:09:19.310Z,12.37
2018-11-12T08:10:19.107Z,12.43
2018-11-12T08:11:19.011Z,12.69
2018-11-12T08:12:18.930Z,12.88
2018-11-12T08:13:18.819Z,13.04
2018-11-12T08:14:18.794Z,12.91
2018-11-12T08:15:18.633Z,13.04
2018-11-12T08:16:18.537Z,12.67
2018-11-12T08:17:18.490Z,12.87
2018-11-12T08:18:18.351Z,12.91
2018-11-12T08:19:18.264Z,12.87
2018-11-12T08:20:18.168Z,13.07
2018-11-12T08:21:18.070Z,13.24
2018-11-12T08:22:17.996Z,13.36
2018-11-12T08:23:17.884Z,13.24
2018-11-12T08:24:17.835Z,13.21
2018-11-12T08:25:17.699Z,13.01
2018-11-12T08:26:17.605Z,13.12
2018-11-12T08:27:17.568Z,13.01
2018-11-12T08:28:17.421Z,13.03
2018-11-12T08:29:17.330Z,13.17
2018-11-12T08:30:17.317Z,13.01
2018-11-12T08:31:17.142Z,13.10
2018-11-12T08:32:17.067Z,13.48
2018-11-12T08:33:17.171Z,13.32
2018-11-12T08:34:16.866Z,12.95
2018-11-12T08:35:16.777Z,12.89
2018-11-12T08:36:16.690Z,13.09
2018-11-12T08:37:16.611Z,12.44
2018-11-12T08:38:16.499Z,12.41
2018-11-12T08:39:16.532Z,12.15
2018-11-12T08:40:16.486Z,12.07
2018-11-12T08:41:16.290Z,12.00
2018-11-12T08:42:16.149Z,11.94
2018-11-12T08:43:16.042Z,11.62
2018-11-12T08:44:15.947Z,11.48
2018-11-12T08:45:15.857Z,11.28
2018-11-12T08:46:15.845Z,11.19
2018-11-12T08:47:15.793Z,10.99
2018-11-12T08:48:15.595Z,11.27
2018-11-12T08:49:15.516Z,11.79
2018-11-12T08:50:15.394Z,12.15
2018-11-12T08:51:15.298Z,12.49
2018-11-12T08:52:15.274Z,12.73
2018-11-12T08:53:15.112Z,12.96
2018-11-12T08:54:15.133Z,13.12
2018-11-12T08:55:15.071Z,13.31
2018-11-12T08:56:14.834Z,13.25
2018-11-12T08:57:14.760Z,13.36
2018-11-12T08:58:15.372Z,13.19
2018-11-12T08:59:14.636Z,13.36
2018-11-12T09:00:14.464Z,13.27
2018-11-12T09:01:14.475Z,13.28
2018-11-12T09:02:14.296Z,13.29
2018-11-12T09:03:14.187Z,13.55
2018-11-12T09:04:14.152Z,13.13
2018-11-12T09:05:14.004Z,13.12
2018-11-12T09:06:13.912Z,13.39
2018-11-12T09:07:14.064Z,13.66
2018-11-12T09:08:13.853Z,13.75
2018-11-12T09:09:13.695Z,13.84
2018-11-12T09:10:13.617Z,13.43
2018-11-12T09:11:13.452Z,13.65
2018-11-12T09:12:13.364Z,13.96
2018-11-12T09:13:13.293Z,14.12
2018-11-12T09:14:13.303Z,14.35
2018-11-12T09:15:13.088Z,14.31
2018-11-12T09:16:12.995Z,14.45
2018-11-12T09:17:12.913Z,14.34
2018-11-12T09:18:12.830Z,14.21
2018-11-12T09:19:12.722Z,14.36
2018-11-12T09:20:12.631Z,14.13
2018-11-12T09:21:12.541Z,14.08
2018-11-12T09:22:12.456Z,14.11
2018-11-12T09:23:12.377Z,14.06
2018-11-12T09:24:12.326Z,13.93
2018-11-12T09:25:12.177Z,13.98
2018-11-12T09:26:12.086Z,14.06
2018-11-12T09:27:11.999Z,14.17
2018-11-12T09:28:11.921Z,14.27
2018-11-12T09:29:11.816Z,14.36
2018-11-12T09:30:11.724Z,14.52
2018-11-12T09:31:12.784Z,14.75
2018-11-12T09:32:11.545Z,14.59
2018-11-12T09:33:11.470Z,14.46
2018-11-12T09:34:11.365Z,14.83
2018-11-12T09:35:11.274Z,14.79
2018-11-12T09:36:11.182Z,14.94
2018-11-12T09:37:11.114Z,15.04
2018-11-12T09:38:11.062Z,15.22
2018-11-12T09:39:10.940Z,15.00
2018-11-12T09:40:10.824Z,14.69
2018-11-12T09:41:10.738Z,14.63
2018-11-12T09:42:10.642Z,15.20
2018-11-12T09:43:10.613Z,15.20
2018-11-12T09:44:10.498Z,15.16
2018-11-12T09:45:10.373Z,15.51
2018-11-12T09:46:10.321Z,15.84
2018-11-12T09:47:10.190Z,15.71
2018-11-12T09:48:10.119Z,15.35
2018-11-12T09:49:10.036Z,15.44
2018-11-12T09:50:09.924Z,15.40
2018-11-12T09:51:09.835Z,15.35
2018-11-12T09:52:09.744Z,15.78
2018-11-12T09:53:09.670Z,15.77
2018-11-12T09:54:09.665Z,15.93
2018-11-12T09:55:09.475Z,15.40
2018-11-12T09:56:09.386Z,15.64
2018-11-12T09:57:09.301Z,15.62
2018-11-12T09:58:09.231Z,15.43
2018-11-12T09:59:09.153Z,15.31
2018-11-12T10:00:09.107Z,15.71
2018-11-12T10:01:09.090Z,15.64
2018-11-12T10:02:09.548Z,14.95
2018-11-12T10:03:09.548Z,15.20
2018-11-12T10:04:09.327Z,15.19
2018-11-12T10:05:09.816Z,15.62
2018-11-12T10:06:09.824Z,15.35
2018-11-12T10:07:09.855Z,15.15
2018-11-12T10:08:10.030Z,15.16
2018-11-12T10:09:10.182Z,15.18
2018-11-12T10:10:11.718Z,15.40
2018-11-12T10:11:11.320Z,15.37
2018-11-12T10:12:10.371Z,15.70
2018-11-12T10:13:10.812Z,15.60
2018-11-12T10:14:09.645Z,15.85
2018-11-12T10:15:10.833Z,15.48
2018-11-12T10:16:11.499Z,15.85
2018-11-12T10:17:10.779Z,16.22
2018-11-12T10:18:10.155Z,16.33
2018-11-12T10:19:07.362Z,16.18
2018-11-12T10:20:07.278Z,16.29
2018-11-12T10:21:07.162Z,16.42
2018-11-12T10:22:07.067Z,16.01
2018-11-12T10:23:06.979Z,16.10
2018-11-12T10:24:06.907Z,16.03
2018-11-12T10:25:06.801Z,15.78
2018-11-12T10:26:06.711Z,15.49
2018-11-12T10:27:06.653Z,14.85
2018-11-12T10:28:06.536Z,14.41
2018-11-12T10:29:06.461Z,14.36
2018-11-12T10:30:06.356Z,14.06
2018-11-12T10:31:06.372Z,14.12
2018-11-12T10:32:06.176Z,14.24
2018-11-12T10:33:06.088Z,14.34
2018-11-12T10:34:06.093Z,14.52
2018-11-12T10:35:05.908Z,15.40
2018-11-12T10:36:05.819Z,15.80
2018-11-12T10:37:05.728Z,15.91
2018-11-12T10:38:05.636Z,15.55
2018-11-12T10:39:05.565Z,15.00
2018-11-12T10:40:05.458Z,15.23
2018-11-12T10:41:05.412Z,15.64
2018-11-12T10:42:05.278Z,15.59
2018-11-12T10:43:05.193Z,15.67
2018-11-12T10:44:05.115Z,15.59
2018-11-12T10:45:05.128Z,15.67
2018-11-12T10:46:04.918Z,15.38
2018-11-12T10:47:04.829Z,15.20
2018-11-12T10:48:04.796Z,14.93
2018-11-12T10:49:04.666Z,14.75
2018-11-12T10:50:04.559Z,14.87
2018-11-12T10:51:05.251Z,15.07
2018-11-12T10:52:04.484Z,15.60
2018-11-12T10:53:04.289Z,15.85
2018-11-12T10:54:04.391Z,16.18
2018-11-12T10:55:05.630Z,16.11
2018-11-12T10:56:04.101Z,15.84
2018-11-12T10:57:03.931Z,15.95
2018-11-12T10:58:03.840Z,15.60
2018-11-12T10:59:03.867Z,15.64
2018-11-12T11:00:03.661Z,16.30
2018-11-12T11:01:03.571Z,16.10
2018-11-12T11:02:03.481Z,16.14
2018-11-12T11:03:03.393Z,15.98
2018-11-12T11:04:03.318Z,15.88
2018-11-12T11:05:03.214Z,16.16
2018-11-12T11:06:03.229Z,16.75
2018-11-12T11:07:03.034Z,16.60
2018-11-12T11:08:02.981Z,16.52
2018-11-12T11:09:02.875Z,16.69
2018-11-12T11:10:02.770Z,16.33
2018-11-12T11:11:02.679Z,16.55
2018-11-12T11:12:02.590Z,17.06
2018-11-12T11:13:02.613Z,16.88
2018-11-12T11:14:02.418Z,16.44
2018-11-12T11:15:02.341Z,16.33
2018-11-12T11:16:02.238Z,16.37
2018-11-12T11:17:02.152Z,16.50
2018-11-12T11:18:02.073Z,16.51
2018-11-12T11:19:01.973Z,16.30
2018-11-12T11:20:02.003Z,16.07
2018-11-12T11:21:01.840Z,16.25
2018-11-12T11:22:01.707Z,16.60
2018-11-12T11:23:01.616Z,16.69
2018-11-12T11:24:01.530Z,16.45
2018-11-12T11:25:01.458Z,16.57
2018-11-12T11:26:01.353Z,16.40
2018-11-12T11:27:01.368Z,15.81
2018-11-12T11:28:01.182Z,15.70
2018-11-12T11:29:01.091Z,15.93
2018-11-12T11:30:01.014Z,16.34
2018-11-12T11:31:00.937Z,16.41
2018-11-12T11:32:00.822Z,16.59
2018-11-12T11:33:00.738Z,16.54
2018-11-12T11:34:00.752Z,15.76
2018-11-12T11:35:00.575Z,15.35
2018-11-12T11:36:00.469Z,15.44
2018-11-12T11:37:00.382Z,15.93
2018-11-12T11:38:00.295Z,15.78
2018-11-12T11:39:00.204Z,15.73
2018-11-12T11:40:00.198Z,15.96
2018-11-12T11:41:00.031Z,15.91
2018-11-12T11:41:59.945Z,15.84
2018-11-12T11:42:59.850Z,15.38
2018-11-12T11:43:59.785Z,15.49
2018-11-12T11:44:59.691Z,15.48
2018-11-12T11:45:59.591Z,15.84
2018-11-12T11:46:59.495Z,15.77
2018-11-12T11:47:59.492Z,15.16
2018-11-12T11:48:59.400Z,15.27
2018-11-12T11:49:59.261Z,14.90
2018-11-12T11:50:59.147Z,14.79
2018-11-12T11:51:59.058Z,14.46
2018-11-12T11:52:58.970Z,14.19
2018-11-12T11:53:58.878Z,13.99
2018-11-12T11:54:58.805Z,14.31
2018-11-12T11:55:58.700Z,14.63
2018-11-12T11:56:58.621Z,14.98
2018-11-12T11:57:58.523Z,15.12
2018-11-12T11:58:58.434Z,14.98
2018-11-12T11:59:58.358Z,14.87
2018-11-12T12:00:58.259Z,14.49
2018-11-12T12:01:58.164Z,14.61
2018-11-12T12:02:58.183Z,14.69
2018-11-12T12:03:57.988Z,14.61
2018-11-12T12:04:57.914Z,14.57
2018-11-12T12:05:57.809Z,14.79
2018-11-12T12:06:57.718Z,15.01
2018-11-12T12:07:57.627Z,15.09
2018-11-12T12:08:57.682Z,15.09
2018-11-12T12:09:57.466Z,14.91
2018-11-12T12:10:57.359Z,15.16
2018-11-12T12:11:57.269Z,15.15
2018-11-12T12:12:57.197Z,14.72
2018-11-12T12:13:57.121Z,15.09
2018-11-12T12:14:57.016Z,14.75
2018-11-12T12:15:56.911Z,14.56
2018-11-12T12:16:56.823Z,14.53
2018-11-12T12:17:56.737Z,14.31
2018-11-12T12:18:56.645Z,14.61
2018-11-12T12:19:56.641Z,14.78
2018-11-12T12:20:56.481Z,14.91
2018-11-12T12:21:56.377Z,15.16
2018-11-12T12:22:56.285Z,14.80
2018-11-12T12:23:56.195Z,15.22
2018-11-12T12:24:56.157Z,14.94
2018-11-12T12:25:56.058Z,14.67
2018-11-12T12:26:55.925Z,14.48
2018-11-12T12:27:55.834Z,15.05
2018-11-12T12:28:55.744Z,15.07
2018-11-12T12:29:55.660Z,15.01
2018-11-12T12:30:55.586Z,15.07
2018-11-12T12:31:55.478Z,14.79
2018-11-12T12:32:55.388Z,14.86
2018-11-12T12:33:55.297Z,14.78
2018-11-12T12:34:55.211Z,14.83
2018-11-12T12:35:55.208Z,14.94
2018-11-12T12:36:55.084Z,15.09
2018-11-12T12:37:54.938Z,15.18
2018-11-12T12:38:54.848Z,15.16
2018-11-12T12:39:54.764Z,15.00
2018-11-12T12:40:54.686Z,14.74
2018-11-12T12:41:54.580Z,14.75
2018-11-12T12:42:54.489Z,14.48
2018-11-12T12:43:54.399Z,14.11
2018-11-12T12:44:54.412Z,14.21
2018-11-12T12:45:54.296Z,13.90
2018-11-12T12:46:54.131Z,13.65
2018-11-12T12:47:54.040Z,13.01
2018-11-12T12:48:53.951Z,12.81
2018-11-12T12:49:53.861Z,12.61
2018-11-12T12:50:53.788Z,12.44
2018-11-12T12:51:53.680Z,12.38
2018-11-12T12:52:53.590Z,12.37
2018-11-12T12:53:53.502Z,12.31
2018-11-12T12:54:53.410Z,12.21
2018-11-12T12:55:53.508Z,12.23
2018-11-12T12:56:53.334Z,12.16
2018-11-12T12:57:53.141Z,12.25
2018-11-12T12:58:53.047Z,12.30
2018-11-12T12:59:52.973Z,12.25
2018-11-12T13:00:52.882Z,12.40
2018-11-12T13:01:52.834Z,12.38
2018-11-12T13:02:52.686Z,12.40
2018-11-12T13:03:52.694Z,12.26
2018-11-12T13:04:53.683Z,12.13
2018-11-12T13:05:52.425Z,12.12
2018-11-12T13:06:52.317Z,12.07
2018-11-12T13:07:52.223Z,11.97
2018-11-12T13:08:52.131Z,12.08
2018-11-12T13:09:52.040Z,12.04
2018-11-12T13:10:51.962Z,12.05
2018-11-12T13:11:51.851Z,12.13
2018-11-12T13:12:51.760Z,12.08
2018-11-12T13:13:51.717Z,12.01
2018-11-12T13:14:51.742Z,12.05
2018-11-12T13:15:51.512Z,11.96
2018-11-12T13:16:51.389Z,12.04
2018-11-12T13:17:51.401Z,12.07